Ardenhurst, Minnesota
Current Conditions -  °F | °C
As of 3:33 PM on Friday 19 Dec 2014 (Local Time) from KFOZ Reporting Station
Overcast Overcast  
Wind Chill: 18°   Ceiling: 1100
Heat Index: 25°   Visibility: 7mi
Dew Point: 21°   Wind: 6mph
Humidity: 86%   Direction: 150°SSE
Pressure: 30.11"   Gusts: NA
Location:  47.8312°N, 94.1459°W
Report Text: KFOZ 192133Z AUTO 15005KT 7SM OVC011 M04/M06 A3011 RMK AO2
Loading
Personal Weather Stations






























Interactive Weather Map New forecast layout! Learn more

10-Day Weather Forecast

Advertisements
Track Severe Weather on mobile